Time;durP1;ratioP1;P1;durP2;ratioP2;P2;SDS_P1;SDS_P2;PMS_P1;PMS_P2;Temp;Humidity;BMP_temperature;BMP_pressure;BME280_temperature;BME280_humidity;BME280_pressure;Samples;Min_cycle;Max_cycle;Signal;HPM_P1;HPM_P2
2021/10/05 00:01:10;;;;;;;2.33;1.40;;;;;;;13.65;73.75;98794.56;5086441;28;41859;-89
2021/10/05 00:03:38;;;;;;;1.27;1.13;;;;;;;13.63;73.75;98796.50;5068989;28;41073;-90
2021/10/05 00:06:05;;;;;;;1.40;1.30;;;;;;;13.59;73.64;98785.25;5052467;28;39112;-88
2021/10/05 00:08:33;;;;;;;1.13;1.03;;;;;;;13.66;73.96;98799.78;5052753;28;40767;-88
2021/10/05 00:11:00;;;;;;;1.40;1.30;;;;;;;13.40;73.88;98760.13;5068303;28;42031;-88
2021/10/05 00:13:29;;;;;;;2.03;0.80;;;;;;;13.44;74.09;98764.28;5069648;28;43193;-90
2021/10/05 00:15:57;;;;;;;1.27;1.03;;;;;;;13.55;73.96;98788.25;5068068;28;40067;-89
2021/10/05 00:18:24;;;;;;;1.33;1.10;;;;;;;13.53;73.59;98784.84;5069001;28;41744;-89
2021/10/05 00:20:52;;;;;;;0.80;0.80;;;;;;;13.41;73.79;98764.50;5069578;28;42442;-88
2021/10/05 00:23:20;;;;;;;0.90;0.80;;;;;;;13.39;73.64;98766.41;5052356;28;42643;-88
2021/10/05 00:25:47;;;;;;;1.00;1.00;;;;;;;13.38;73.75;98757.59;5051872;28;39804;-89
2021/10/05 00:28:15;;;;;;;0.77;0.77;;;;;;;13.47;73.86;98769.38;5068332;28;41127;-89
2021/10/05 00:30:44;;;;;;;1.27;1.00;;;;;;;13.46;73.82;98767.66;5052882;28;42049;-88
2021/10/05 00:33:12;;;;;;;1.03;1.00;;;;;;;13.43;73.79;98751.94;5052443;28;41478;-88
2021/10/05 00:35:39;;;;;;;1.13;1.03;;;;;;;13.41;73.69;98735.25;5068870;28;40028;-88
2021/10/05 00:38:07;;;;;;;1.40;1.30;;;;;;;13.46;74.21;98744.56;5085792;28;41860;-89
2021/10/05 00:40:34;;;;;;;1.50;0.90;;;;;;;13.47;73.99;98732.97;5052372;28;41889;-87
2021/10/05 00:43:02;;;;;;;1.73;1.43;;;;;;;13.46;74.38;98714.47;5052468;28;40821;-89
2021/10/05 00:45:29;;;;;;;1.73;1.13;;;;;;;13.54;74.44;98728.03;5051748;28;39198;-88
2021/10/05 00:47:58;;;;;;;2.17;1.17;;;;;;;13.50;74.49;98711.44;5052776;28;41632;-89
2021/10/05 08:28:04;;;;;;;2.27;2.07;;;;;;;13.42;96.98;98356.56;5106331;28;20599;-82
2021/10/05 08:30:32;;;;;;;2.33;1.60;;;;;;;13.96;95.13;98357.31;5082575;28;38873;-87
2021/10/05 08:33:00;;;;;;;1.97;1.77;;;;;;;14.45;91.27;98369.16;5080610;28;40714;-83
2021/10/05 08:35:28;;;;;;;2.20;2.00;;;;;;;14.68;88.33;98357.34;5085061;28;41676;-81
2021/10/05 08:37:57;;;;;;;1.50;1.40;;;;;;;14.88;85.98;98354.72;5067756;28;41383;-77
2021/10/05 08:40:25;;;;;;;2.50;1.70;;;;;;;15.08;84.56;98359.16;5086769;28;40329;-79
2021/10/05 08:42:52;;;;;;;1.57;1.23;;;;;;;15.14;83.71;98366.59;5086098;28;41030;-79
2021/10/05 08:45:21;;;;;;;1.97;1.60;;;;;;;15.18;83.31;98365.38;5104775;28;41866;-83
2021/10/05 08:47:50;;;;;;;1.90;1.80;;;;;;;15.21;82.79;98373.06;5131900;27;43180;-80
2021/10/05 08:50:18;;;;;;;2.63;1.77;;;;;;;15.14;81.21;98377.28;5083922;28;38921;-77
2021/10/05 08:52:46;;;;;;;1.57;1.30;;;;;;;15.08;81.42;98367.97;5084831;28;41964;-76
2021/10/05 08:55:14;;;;;;;1.77;1.50;;;;;;;15.17;81.12;98361.00;5085790;28;43848;-78
2021/10/05 08:57:42;;;;;;;2.17;1.67;;;;;;;15.42;80.26;98375.66;5086175;28;43194;-84
2021/10/05 09:00:10;;;;;;;1.83;1.40;;;;;;;15.56;79.72;98374.47;5085340;28;40731;-79
2021/10/05 09:02:48;;;;;;;2.10;1.70;;;;;;;15.70;79.64;98380.19;5085721;28;41731;-79
2021/10/05 09:05:18;;;;;;;1.93;1.70;;;;;;;15.73;79.33;98376.41;5067811;28;41771;-78
2021/10/05 09:07:48;;;;;;;1.40;1.20;;;;;;;15.76;79.04;98370.81;5084128;28;42042;-81
2021/10/05 09:10:19;;;;;;;1.57;1.47;;;;;;;15.89;78.75;98373.19;5066700;28;40134;-81
2021/10/05 09:12:47;;;;;;;2.70;1.90;;;;;;;16.00;78.69;98376.56;5063780;28;41048;-82
2021/10/05 09:15:17;;;;;;;2.17;1.77;;;;;;;16.05;78.26;98374.31;5047791;28;41604;-82
2021/10/05 09:17:53;;;;;;;1.50;1.40;;;;;;;16.02;77.90;98353.22;5070546;28;42081;-79
2021/10/05 09:20:23;;;;;;;1.87;1.70;;;;;;;16.29;77.31;98381.03;5084096;28;40960;-81
2021/10/05 09:23:00;;;;;;;1.87;1.73;;;;;;;16.37;76.40;98381.16;5083232;28;41908;-90
2021/10/05 09:25:34;;;;;;;1.70;1.27;;;;;;;16.41;75.55;98379.88;5084246;28;43039;-79
2021/10/05 09:28:13;;;;;;;1.50;1.40;;;;;;;16.58;75.75;98376.44;5067470;28;41221;-80
2021/10/05 09:30:41;;;;;;;1.30;1.20;;;;;;;16.82;75.59;98368.78;5067350;28;39294;-81
2021/10/05 09:33:11;;;;;;;1.60;1.50;;;;;;;17.16;74.63;98365.56;5084139;28;41084;-77
2021/10/05 09:35:43;;;;;;;1.80;1.70;;;;;;;17.57;73.93;98358.81;5083894;28;43025;-81
2021/10/05 09:38:13;;;;;;;1.83;1.57;;;;;;;17.96;72.83;98362.06;5059158;28;41415;-83
2021/10/05 09:40:41;;;;;;;1.40;1.30;;;;;;;18.22;71.38;98370.97;5089158;28;40381;-84
2021/10/05 09:43:22;;;;;;;1.80;1.53;;;;;;;18.44;70.40;98377.66;5114415;27;42879;-86
2021/10/05 09:45:50;;;;;;;3.40;1.90;;;;;;;18.70;69.55;98374.19;5054249;28;41751;-81
2021/10/05 09:48:20;;;;;;;1.40;1.30;;;;;;;18.93;68.63;98372.63;5069966;28;42203;-82
2021/10/05 09:50:47;;;;;;;1.57;1.47;;;;;;;19.04;67.58;98376.91;5070261;28;39834;-84
2021/10/05 09:53:18;;;;;;;1.50;1.40;;;;;;;19.11;68.04;98372.56;5056591;28;42334;-81
2021/10/05 09:55:47;;;;;;;1.60;1.40;;;;;;;19.24;67.26;98375.63;5053753;28;42120;-81
2021/10/05 09:58:19;;;;;;;1.57;1.47;;;;;;;19.31;65.97;98380.16;5052541;28;41290;-86
2021/10/05 10:00:50;;;;;;;1.20;1.10;;;;;;;19.44;65.73;98379.72;5053819;28;39097;-84
2021/10/05 10:03:19;;;;;;;2.30;1.77;;;;;;;19.57;64.86;98373.91;5066470;28;41480;-82
2021/10/05 10:05:47;;;;;;;1.67;1.17;;;;;;;19.75;63.97;98366.56;5091131;28;43094;-87
2021/10/05 10:08:16;;;;;;;1.07;1.03;;;;;;;19.88;63.62;98355.34;5095717;27;41608;-82
2021/10/05 10:10:45;;;;;;;1.10;1.10;;;;;;;20.27;62.82;98385.94;5070049;28;40704;-84
2021/10/05 10:13:14;;;;;;;1.70;1.23;;;;;;;20.33;62.49;98381.72;5069541;28;42030;-81
2021/10/05 10:15:43;;;;;;;1.40;1.10;;;;;;;20.28;62.25;98386.75;5069718;28;44102;-83
2021/10/05 10:18:13;;;;;;;1.30;1.20;;;;;;;20.21;61.38;98393.81;5052547;28;41040;-84
2021/10/05 10:20:44;;;;;;;1.27;1.13;;;;;;;20.12;61.60;98387.59;5069695;28;40166;-78
2021/10/05 10:23:20;;;;;;;2.20;1.30;;;;;;;20.02;62.71;98368.94;5070340;28;41837;-83
2021/10/05 10:25:56;;;;;;;1.50;1.03;;;;;;;20.13;62.95;98365.09;5052528;28;41687;-80
2021/10/05 10:28:29;;;;;;;1.20;1.10;;;;;;;20.33;62.61;98377.16;5068824;28;41381;-78
2021/10/05 10:30:59;;;;;;;0.70;0.70;;;;;;;20.39;63.15;98381.06;5052140;28;40189;-82
2021/10/05 10:33:29;;;;;;;1.27;1.07;;;;;;;20.25;61.65;98379.88;5070023;28;41719;-82
2021/10/05 10:35:59;;;;;;;1.00;1.00;;;;;;;20.15;61.65;98368.44;5048099;28;41676;-82
2021/10/05 10:38:29;;;;;;;1.97;1.00;;;;;;;20.18;61.17;98378.84;5066654;28;40956;-82
2021/10/05 10:40:58;;;;;;;1.97;1.13;;;;;;;20.19;62.15;98371.63;5050510;28;39912;-82
2021/10/05 10:43:28;;;;;;;1.77;1.30;;;;;;;20.11;62.18;98383.22;5095360;28;41702;-81
2021/10/05 10:45:58;;;;;;;1.83;1.10;;;;;;;19.85;61.93;98369.09;5067737;28;41732;-83
2021/10/05 10:48:27;;;;;;;1.20;1.10;;;;;;;19.71;61.29;98367.91;5069728;28;42217;-86
2021/10/05 10:50:59;;;;;;;0.90;0.90;;;;;;;19.65;60.91;98376.63;5067502;28;39913;-82
2021/10/05 10:53:34;;;;;;;0.60;0.60;;;;;;;19.82;61.16;98370.25;5052116;28;40544;-82
2021/10/05 10:56:02;;;;;;;0.50;0.50;;;;;;;20.12;61.88;98344.59;5069020;28;42780;-82
2021/10/05 10:58:40;;;;;;;0.60;0.60;;;;;;;20.40;61.89;98356.66;5069471;28;43318;-82
2021/10/05 11:01:09;;;;;;;0.50;0.50;;;;;;;20.53;60.82;98360.69;5069056;28;40070;-85
2021/10/05 11:03:37;;;;;;;0.80;0.80;;;;;;;20.51;59.37;98371.66;5069176;28;42625;-82
2021/10/05 11:06:15;;;;;;;0.60;0.60;;;;;;;20.41;59.39;98352.97;5051788;28;42061;-82
2021/10/05 11:08:54;;;;;;;0.53;0.53;;;;;;;20.54;60.01;98367.75;5052424;28;42280;-86
2021/10/05 11:11:30;;;;;;;0.70;0.70;;;;;;;20.53;59.41;98366.06;5052554;28;39140;-83
2021/10/05 11:14:01;;;;;;;0.60;0.60;;;;;;;20.66;59.63;98361.00;5068998;28;41720;-82
2021/10/05 11:16:29;;;;;;;0.67;0.67;;;;;;;21.08;58.66;98377.72;5068538;28;42121;-80
2021/10/05 11:19:05;;;;;;;0.60;0.60;;;;;;;21.15;57.43;98367.91;5069580;28;42545;-85
2021/10/05 11:21:36;;;;;;;0.50;0.50;;;;;;;21.14;57.73;98365.41;5069993;28;40141;-84
2021/10/05 11:24:04;;;;;;;0.67;0.67;;;;;;;20.96;57.95;98368.34;5102135;28;42127;-83
2021/10/05 11:26:34;;;;;;;0.60;0.60;;;;;;;20.75;59.11;98357.31;5068312;28;43313;-81
2021/10/05 11:29:02;;;;;;;0.40;0.40;;;;;;;20.59;58.57;98360.03;5068617;28;42189;-86
2021/10/05 11:31:41;;;;;;;0.63;0.60;;;;;;;20.51;58.39;98362.75;5072486;28;40964;-82
2021/10/05 11:34:09;;;;;;;0.50;0.50;;;;;;;20.41;57.49;98358.34;5061878;28;41683;-82
2021/10/05 11:36:38;;;;;;;0.63;0.53;;;;;;;20.49;58.37;98354.00;5064045;28;41785;-80
2021/10/05 11:39:07;;;;;;;0.53;0.53;;;;;;;20.62;58.29;98354.31;5047705;28;42360;-83
2021/10/05 11:41:37;;;;;;;0.50;0.50;;;;;;;20.62;57.77;98352.47;5050766;28;39823;-83
2021/10/05 11:44:15;;;;;;;0.47;0.47;;;;;;;20.52;57.96;98338.38;5050748;28;41719;-83
2021/10/05 11:46:54;;;;;;;0.40;0.40;;;;;;;20.49;58.22;98332.47;5051264;28;42019;-85
2021/10/05 11:49:22;;;;;;;0.53;0.53;;;;;;;20.51;58.34;98323.22;5052575;28;41044;-84
2021/10/05 11:51:54;;;;;;;0.60;0.50;;;;;;;20.50;58.36;98328.78;5063003;28;39243;-88
2021/10/05 11:54:24;;;;;;;0.50;0.50;;;;;;;20.48;57.84;98325.41;5071563;28;40665;-80
2021/10/05 11:56:53;;;;;;;0.60;0.60;;;;;;;20.47;57.08;98331.78;5087137;28;41445;-81
2021/10/05 11:59:24;;;;;;;0.40;0.40;;;;;;;20.59;57.39;98314.28;5050561;28;41102;-82
2021/10/05 12:01:57;;;;;;;0.60;0.60;;;;;;;20.96;57.82;98309.09;5070569;28;40310;-85
2021/10/05 12:04:26;;;;;;;0.50;0.50;;;;;;;21.23;56.68;98315.91;5067458;28;41881;-82
2021/10/05 12:07:00;;;;;;;0.97;0.63;;;;;;;21.30;56.47;98326.81;5050777;28;43280;-84
2021/10/05 12:09:29;;;;;;;0.60;0.60;;;;;;;21.31;56.33;98321.25;5055012;28;43072;-85
2021/10/05 12:12:04;;;;;;;0.60;0.60;;;;;;;21.43;55.58;98335.16;5041669;28;39276;-82
2021/10/05 12:14:36;;;;;;;0.50;0.50;;;;;;;21.29;54.95;98322.44;5067547;28;40758;-82
2021/10/05 12:17:05;;;;;;;0.50;0.50;;;;;;;21.19;55.30;98351.44;5066650;28;44006;-83
2021/10/05 12:19:35;;;;;;;0.60;0.60;;;;;;;20.93;55.28;98346.28;5067583;28;41199;-82
2021/10/05 12:22:06;;;;;;;0.60;0.60;;;;;;;20.58;56.01;98342.19;5066880;28;38834;-81
2021/10/05 12:24:40;;;;;;;0.77;0.50;;;;;;;20.30;56.50;98329.09;5073541;28;41505;-84
2021/10/05 12:27:08;;;;;;;0.97;0.80;;;;;;;20.14;56.30;98322.91;5070476;28;43480;-83
2021/10/05 12:29:46;;;;;;;0.53;0.53;;;;;;;19.99;57.01;98336.19;5063709;28;41095;-90
2021/10/05 12:32:14;;;;;;;0.43;0.43;;;;;;;19.75;57.65;98339.69;5050151;28;39125;-86
2021/10/05 12:34:44;;;;;;;0.50;0.50;;;;;;;19.52;58.66;98328.75;5053517;28;40765;-87
2021/10/05 12:37:13;;;;;;;0.60;0.60;;;;;;;19.29;58.65;98316.91;5099949;28;43657;-87
2021/10/05 12:39:40;;;;;;;0.77;0.73;;;;;;;19.18;59.09;98325.25;5101416;28;41335;-84
2021/10/05 12:42:08;;;;;;;0.67;0.67;;;;;;;19.00;59.05;98328.91;5049659;28;38801;-83
2021/10/05 12:44:36;;;;;;;0.50;0.50;;;;;;;18.91;60.00;98335.25;5081685;28;43172;-79
2021/10/05 12:47:07;;;;;;;0.53;0.53;;;;;;;18.83;60.82;98337.88;5088322;28;43373;-87
2021/10/05 12:49:51;;;;;;;0.50;0.50;;;;;;;18.76;60.38;98327.97;5095885;27;42264;-84
2021/10/05 12:52:20;;;;;;;0.60;0.60;;;;;;;18.76;61.04;98326.13;5050185;28;38881;-90
2021/10/05 12:54:48;;;;;;;1.47;0.50;;;;;;;18.67;60.57;98327.06;5075764;28;42481;-87
2021/10/05 12:57:15;;;;;;;0.70;0.70;;;;;;;18.59;61.16;98321.66;5049073;28;41889;-88
2021/10/05 12:59:52;;;;;;;0.60;0.60;;;;;;;18.49;61.51;98312.84;5084741;28;41210;-83
2021/10/05 13:02:20;;;;;;;0.67;0.67;;;;;;;18.53;62.18;98319.59;5082175;28;38867;-82
2021/10/05 13:04:47;;;;;;;1.63;0.70;;;;;;;18.36;61.84;98291.84;5061612;28;41430;-80
2021/10/05 13:07:15;;;;;;;0.60;0.60;;;;;;;18.41;61.52;98312.81;5065544;28;41625;-81
2021/10/05 13:09:44;;;;;;;1.37;0.70;;;;;;;18.33;61.33;98323.47;5049879;28;41100;-84
2021/10/05 13:12:11;;;;;;;0.60;0.60;;;;;;;18.20;61.69;98314.00;5067371;28;39798;-82
2021/10/05 13:14:39;;;;;;;0.70;0.70;;;;;;;18.20;62.26;98319.38;5069584;28;40694;-83
2021/10/05 13:17:06;;;;;;;0.70;0.70;;;;;;;18.00;62.31;98298.28;5069273;28;43822;-80
2021/10/05 13:19:34;;;;;;;0.90;0.90;;;;;;;18.09;62.77;98316.09;5071451;28;43005;-80
2021/10/05 13:22:01;;;;;;;0.60;0.60;;;;;;;18.03;63.13;98301.50;5068966;28;40158;-80
2021/10/05 13:24:29;;;;;;;0.80;0.80;;;;;;;18.24;63.02;98293.94;5069781;28;41740;-80
2021/10/05 13:26:58;;;;;;;0.67;0.67;;;;;;;18.93;61.78;98306.38;5068665;28;42640;-86
2021/10/05 13:29:25;;;;;;;0.73;0.73;;;;;;;19.73;59.91;98294.19;5069385;28;42536;-84
2021/10/05 13:31:54;;;;;;;0.97;0.80;;;;;;;21.02;57.48;98335.31;5068955;28;38882;-84
2021/10/05 13:34:22;;;;;;;0.60;0.60;;;;;;;21.56;55.66;98350.75;5058071;28;42756;-83
2021/10/05 13:36:50;;;;;;;0.80;0.80;;;;;;;21.81;54.11;98352.25;5052991;28;42996;-84
2021/10/05 13:39:17;;;;;;;0.50;0.50;;;;;;;22.26;53.07;98354.13;5052464;28;41489;-87
2021/10/05 13:41:45;;;;;;;0.70;0.70;;;;;;;22.80;52.73;98353.97;5069523;28;39083;-82
2021/10/05 13:44:14;;;;;;;0.80;0.80;;;;;;;22.77;50.60;98365.97;5069562;28;41686;-80
2021/10/05 13:46:42;;;;;;;0.90;0.70;;;;;;;22.25;51.76;98343.53;5069565;28;42797;-84
2021/10/05 13:49:10;;;;;;;0.80;0.80;;;;;;;22.10;52.58;98327.31;5067952;28;42168;-80
2021/10/05 13:51:37;;;;;;;0.63;0.63;;;;;;;22.17;52.49;98314.75;5049318;28;38722;-81
2021/10/05 13:54:05;;;;;;;0.60;0.60;;;;;;;22.36;51.63;98311.56;5052846;28;41084;-87
2021/10/05 13:56:33;;;;;;;3.27;2.10;;;;;;;22.43;51.24;98298.16;5069191;28;42992;-91
2021/10/05 13:59:03;;;;;;;1.67;1.40;;;;;;;23.23;50.91;98309.06;5067209;28;42399;-85
2021/10/05 14:01:32;;;;;;;1.00;0.90;;;;;;;23.77;48.72;98309.47;5051821;28;40244;-83
2021/10/05 14:04:00;;;;;;;0.90;0.80;;;;;;;25.09;46.69;98321.34;5052347;28;40961;-87
2021/10/05 14:06:28;;;;;;;1.00;0.97;;;;;;;26.04;44.74;98329.38;5051928;28;41763;-87
2021/10/05 14:08:58;;;;;;;0.90;0.90;;;;;;;26.32;43.08;98334.66;5074064;28;42005;-81
2021/10/05 14:11:25;;;;;;;0.67;0.67;;;;;;;26.71;42.53;98328.31;5073291;28;40776;-83
2021/10/05 14:13:56;;;;;;;0.60;0.60;;;;;;;26.80;42.80;98343.38;5069948;28;41754;-81
2021/10/05 14:16:24;;;;;;;1.37;1.27;;;;;;;26.61;41.65;98354.25;5051744;28;41807;-84
2021/10/05 14:18:54;;;;;;;0.80;0.80;;;;;;;26.23;40.76;98359.44;5068274;28;42480;-79
2021/10/05 14:21:21;;;;;;;1.60;1.00;;;;;;;25.57;42.93;98341.16;5067774;28;38763;-80
2021/10/05 14:23:50;;;;;;;0.73;0.73;;;;;;;24.78;43.78;98313.63;5067757;28;42752;-87
2021/10/05 14:26:18;;;;;;;0.60;0.60;;;;;;;24.02;44.95;98301.78;5069123;28;42646;-86
2021/10/05 14:28:47;;;;;;;0.80;0.80;;;;;;;23.45;46.33;98299.97;5054661;28;42069;-90
2021/10/05 14:31:14;;;;;;;0.50;0.50;;;;;;;22.97;47.24;98297.91;5053277;28;39200;-92
2021/10/05 14:33:42;;;;;;;0.50;0.50;;;;;;;22.16;48.38;98253.75;5051237;28;40538;-89
2021/10/05 14:36:11;;;;;;;0.57;0.57;;;;;;;22.13;49.00;98314.28;5085296;28;41882;-85
2021/10/05 14:38:38;;;;;;;0.90;0.80;;;;;;;21.74;50.08;98286.63;5050630;28;41470;-85
2021/10/05 14:41:06;;;;;;;1.33;0.50;;;;;;;21.62;50.82;98291.59;5051516;28;38878;-84
2021/10/05 14:43:34;;;;;;;0.70;0.70;;;;;;;21.50;51.49;98277.72;5061343;28;40854;-80
2021/10/05 14:46:01;;;;;;;0.53;0.50;;;;;;;21.50;51.57;98293.03;5068085;28;43365;-87
2021/10/05 14:48:28;;;;;;;0.90;0.70;;;;;;;21.44;51.87;98286.50;5067959;28;41424;-77
2021/10/05 14:50:56;;;;;;;0.60;0.60;;;;;;;21.41;51.87;98284.16;5067594;28;39706;-78
2021/10/05 14:53:25;;;;;;;0.60;0.60;;;;;;;21.44;52.17;98283.81;5084370;28;41662;-80
2021/10/05 14:55:52;;;;;;;0.70;0.70;;;;;;;21.40;52.50;98273.53;5050442;28;43026;-78
2021/10/05 14:58:20;;;;;;;0.60;0.60;;;;;;;21.33;52.60;98270.75;5066473;28;42472;-81
2021/10/05 15:00:48;;;;;;;0.60;0.60;;;;;;;21.22;52.54;98264.91;5051496;28;40078;-80
2021/10/05 15:03:15;;;;;;;0.70;0.70;;;;;;;21.13;53.62;98262.25;5067259;28;42581;-78
2021/10/05 15:05:43;;;;;;;0.80;0.77;;;;;;;21.01;53.60;98260.97;5067457;28;43800;-79
2021/10/05 15:08:11;;;;;;;0.70;0.70;;;;;;;20.75;53.34;98255.88;5050697;28;41544;-80
2021/10/05 15:10:40;;;;;;;0.90;0.90;;;;;;;20.73;54.18;98265.13;5067427;28;39700;-80
2021/10/05 15:13:07;;;;;;;0.50;0.50;;;;;;;20.70;54.15;98263.63;5067417;28;41477;-76
2021/10/05 15:15:35;;;;;;;0.60;0.60;;;;;;;20.56;54.18;98258.13;5067374;28;43013;-81
2021/10/05 15:18:03;;;;;;;0.53;0.53;;;;;;;20.56;54.73;98279.66;5084707;28;40957;-80
2021/10/05 15:20:30;;;;;;;1.30;0.70;;;;;;;20.54;54.60;98277.13;5084541;28;39045;-80
2021/10/05 15:22:58;;;;;;;0.60;0.60;;;;;;;20.43;54.89;98272.97;5068597;28;42779;-79
2021/10/05 15:25:25;;;;;;;0.70;0.70;;;;;;;20.31;54.42;98270.78;5054244;28;42147;-81
2021/10/05 15:27:54;;;;;;;0.40;0.40;;;;;;;20.15;55.48;98271.66;5101771;27;42826;-80
2021/10/05 15:30:22;;;;;;;0.53;0.53;;;;;;;19.94;55.44;98239.09;5051318;28;40080;-88
2021/10/05 15:32:49;;;;;;;1.20;0.80;;;;;;;19.98;56.02;98265.47;5067476;28;42243;-86
2021/10/05 15:35:17;;;;;;;0.50;0.50;;;;;;;19.84;56.64;98268.81;5068161;28;43267;-84
2021/10/05 15:37:45;;;;;;;0.53;0.50;;;;;;;19.75;56.95;98269.00;5067894;28;43338;-86
2021/10/05 15:40:16;;;;;;;0.77;0.73;;;;;;;19.66;56.89;98265.44;5068089;28;40744;-84
2021/10/05 15:42:44;;;;;;;0.83;0.83;;;;;;;19.54;58.05;98258.72;5084104;28;40511;-87
2021/10/05 15:45:14;;;;;;;1.00;0.90;;;;;;;19.41;57.97;98261.06;5068741;28;43622;-85
2021/10/05 15:47:44;;;;;;;0.80;0.80;;;;;;;19.26;58.50;98264.41;5067584;28;41969;-87
2021/10/05 15:50:17;;;;;;;1.03;0.70;;;;;;;19.09;59.01;98254.63;5083848;28;39269;-84
2021/10/05 15:52:53;;;;;;;0.70;0.70;;;;;;;18.85;59.33;98257.22;5068377;28;41854;-80
2021/10/05 15:55:22;;;;;;;1.00;1.00;;;;;;;18.75;59.92;98265.41;5061246;28;44183;-80
2021/10/05 15:57:52;;;;;;;0.70;0.70;;;;;;;18.58;60.04;98259.13;5066921;28;41391;-82
2021/10/05 16:00:23;;;;;;;0.80;0.80;;;;;;;18.42;60.20;98247.47;5067465;28;38867;-81
2021/10/05 16:02:52;;;;;;;0.87;0.87;;;;;;;18.43;60.50;98265.22;5049276;28;40633;-81
2021/10/05 16:05:20;;;;;;;1.30;0.77;;;;;;;18.28;61.48;98263.16;5066561;28;41634;-83
2021/10/05 16:07:48;;;;;;;1.03;0.93;;;;;;;18.04;62.14;98233.53;5067104;28;42218;-86
2021/10/05 16:10:17;;;;;;;0.90;0.90;;;;;;;18.00;62.09;98258.94;5050630;28;38943;-87
2021/10/05 16:12:45;;;;;;;0.60;0.60;;;;;;;17.82;62.45;98240.22;5049192;28;41895;-90
2021/10/05 16:15:13;;;;;;;0.80;0.80;;;;;;;17.89;62.37;98259.19;5068051;28;43103;-86
2021/10/05 16:17:46;;;;;;;1.10;1.00;;;;;;;17.82;62.84;98252.78;5099378;28;42956;-84
2021/10/05 16:20:14;;;;;;;0.70;0.63;;;;;;;17.76;63.13;98256.09;5067433;28;40097;-92
2021/10/05 16:22:42;;;;;;;0.93;0.73;;;;;;;17.71;62.88;98255.69;5083614;28;40890;-85
2021/10/05 16:25:10;;;;;;;0.73;0.60;;;;;;;17.67;63.15;98251.66;5050683;28;41860;-86
2021/10/05 16:27:38;;;;;;;0.70;0.70;;;;;;;17.56;63.11;98236.63;5050022;28;42716;-86
2021/10/05 16:30:07;;;;;;;0.93;0.93;;;;;;;17.53;63.71;98235.13;5067243;28;40311;-82
2021/10/05 16:32:35;;;;;;;1.17;0.90;;;;;;;17.42;64.11;98238.06;5066416;28;41931;-82
2021/10/05 16:35:06;;;;;;;1.33;1.10;;;;;;;17.29;64.34;98231.41;5100942;28;41819;-83
2021/10/05 16:37:33;;;;;;;0.50;0.50;;;;;;;17.06;64.95;98225.66;5076130;28;42403;-84
2021/10/05 16:40:01;;;;;;;0.63;0.63;;;;;;;17.01;65.23;98233.28;5073833;28;40388;-82
2021/10/05 16:42:28;;;;;;;0.93;0.90;;;;;;;16.78;65.45;98212.31;5090801;28;41343;-86
2021/10/05 16:44:56;;;;;;;1.20;1.10;;;;;;;16.75;65.87;98231.34;5074477;28;43058;-78
2021/10/05 16:47:24;;;;;;;1.67;1.57;;;;;;;16.63;66.38;98235.22;5074051;28;41134;-82
2021/10/05 16:49:51;;;;;;;1.20;1.10;;;;;;;16.48;66.72;98229.47;5059773;28;39567;-80
2021/10/05 16:52:20;;;;;;;1.20;1.10;;;;;;;16.32;67.53;98209.75;5083173;28;41088;-85
2021/10/05 16:54:48;;;;;;;1.20;1.10;;;;;;;16.22;68.22;98214.25;5084199;28;41547;-85
2021/10/05 16:57:15;;;;;;;1.50;1.40;;;;;;;16.11;68.35;98221.47;5095214;28;42459;-84
2021/10/05 16:59:43;;;;;;;1.37;1.17;;;;;;;16.03;68.25;98224.03;5080044;28;40315;-83
2021/10/05 17:02:11;;;;;;;0.83;0.80;;;;;;;16.00;68.15;98223.47;5064297;28;40647;-84
2021/10/05 17:04:38;;;;;;;1.43;1.00;;;;;;;15.89;68.74;98219.16;5057565;28;41623;-86
2021/10/05 17:07:06;;;;;;;1.07;0.97;;;;;;;15.82;69.15;98219.91;5070492;28;42282;-84
2021/10/05 17:09:36;;;;;;;1.13;1.03;;;;;;;15.75;69.43;98219.63;5053916;28;39120;-83
2021/10/05 17:12:04;;;;;;;1.07;1.00;;;;;;;15.67;69.57;98219.50;5053576;28;42133;-84
2021/10/05 17:14:32;;;;;;;1.20;1.10;;;;;;;15.46;70.15;98185.78;5053547;28;44433;-83
2021/10/05 17:16:59;;;;;;;1.83;1.73;;;;;;;15.56;69.89;98212.50;5052063;28;41644;-87
2021/10/05 17:19:27;;;;;;;0.90;0.90;;;;;;;15.51;70.07;98221.88;5086104;28;39171;-84
2021/10/05 17:21:54;;;;;;;1.23;1.13;;;;;;;15.44;70.01;98225.13;5051468;28;40907;-86
2021/10/05 17:24:23;;;;;;;1.17;1.03;;;;;;;15.39;70.02;98232.69;5047399;28;42257;-84
2021/10/05 17:26:52;;;;;;;0.80;0.80;;;;;;;15.29;69.72;98226.53;5051132;28;42284;-86
2021/10/05 17:29:21;;;;;;;1.33;1.23;;;;;;;15.33;70.11;98238.56;5051827;28;38902;-85
2021/10/05 17:31:51;;;;;;;1.30;1.20;;;;;;;15.22;70.24;98230.72;5052364;28;41047;-85
2021/10/05 17:34:19;;;;;;;1.03;0.97;;;;;;;15.19;71.06;98224.84;5071427;28;42842;-85
2021/10/05 17:36:47;;;;;;;1.43;1.33;;;;;;;15.21;70.50;98238.84;5054462;28;42233;-86
2021/10/05 17:39:15;;;;;;;1.77;1.40;;;;;;;15.11;71.09;98228.19;5052961;28;38908;-85
2021/10/05 17:41:44;;;;;;;2.57;1.50;;;;;;;15.20;70.92;98238.03;5054169;28;41006;-83
2021/10/05 17:44:14;;;;;;;1.47;1.30;;;;;;;15.15;71.14;98229.59;5069940;28;43826;-84
2021/10/05 17:46:42;;;;;;;1.47;1.37;;;;;;;15.20;71.41;98237.19;5087264;28;41140;-84
2021/10/05 17:49:10;;;;;;;1.83;1.20;;;;;;;15.28;71.80;98246.19;5053474;28;39475;-85
2021/10/05 17:51:39;;;;;;;6.27;3.87;;;;;;;15.33;71.53;98254.59;5053652;28;40774;-84
2021/10/05 17:54:09;;;;;;;2.80;1.70;;;;;;;15.37;72.15;98252.47;5086860;28;41975;-85
2021/10/05 17:56:37;;;;;;;1.40;1.30;;;;;;;15.35;71.59;98236.63;5070567;28;42322;-84
2021/10/05 17:59:04;;;;;;;1.70;1.50;;;;;;;15.51;71.39;98256.56;5052339;28;40551;-86
2021/10/05 18:01:33;;;;;;;1.53;1.40;;;;;;;15.56;71.83;98251.69;5069933;28;40871;-84
2021/10/05 18:04:02;;;;;;;1.20;1.17;;;;;;;15.50;71.54;98238.84;5056230;28;41712;-84
2021/10/05 18:06:29;;;;;;;1.10;1.00;;;;;;;15.50;71.34;98229.03;5052993;28;41318;-84
2021/10/05 18:08:57;;;;;;;1.47;1.23;;;;;;;15.67;72.52;98252.38;5054707;28;40311;-84
2021/10/05 18:11:25;;;;;;;1.80;1.50;;;;;;;15.61;72.13;98233.41;5053887;28;40771;-85
2021/10/05 18:13:55;;;;;;;1.33;1.23;;;;;;;15.62;71.87;98237.75;5037297;28;42753;-85
2021/10/05 18:16:23;;;;;;;1.37;1.27;;;;;;;15.64;71.89;98231.28;5053733;28;41172;-85
2021/10/05 18:18:53;;;;;;;1.20;1.10;;;;;;;15.73;71.35;98248.28;5053215;28;39860;-85
2021/10/05 18:21:22;;;;;;;1.60;1.50;;;;;;;15.68;72.24;98242.53;5036647;28;42215;-85
2021/10/05 18:23:50;;;;;;;2.13;1.60;;;;;;;15.68;72.59;98238.03;5069942;28;41891;-85
2021/10/05 18:26:17;;;;;;;1.40;1.30;;;;;;;15.75;72.22;98248.97;5052939;28;41287;-87
2021/10/05 18:28:45;;;;;;;1.33;1.23;;;;;;;15.81;72.64;98253.75;5053485;28;39764;-86
2021/10/05 18:31:13;;;;;;;1.47;1.37;;;;;;;15.82;72.55;98263.47;5069598;28;43442;-85
2021/10/05 18:33:40;;;;;;;1.30;1.20;;;;;;;15.82;72.54;98266.94;5053961;28;43025;-83
2021/10/05 18:36:10;;;;;;;1.47;1.37;;;;;;;15.75;72.68;98251.66;5090873;28;41437;-85
2021/10/05 18:38:39;;;;;;;1.47;1.30;;;;;;;15.63;72.44;98223.44;5081219;28;40089;-82
2021/10/05 18:41:08;;;;;;;1.27;1.17;;;;;;;15.85;72.34;98252.47;5052372;28;41057;-83
2021/10/05 18:43:36;;;;;;;1.37;1.20;;;;;;;15.77;73.12;98244.34;5069064;28;42553;-85
2021/10/05 18:46:05;;;;;;;1.93;1.27;;;;;;;15.79;72.64;98234.38;5071250;28;42998;-86
2021/10/05 18:48:33;;;;;;;1.67;1.33;;;;;;;15.86;72.51;98250.63;5071465;28;43307;-90
2021/10/05 18:51:01;;;;;;;1.20;1.10;;;;;;;15.83;72.52;98249.09;5059267;28;41493;-80
2021/10/05 18:53:33;;;;;;;2.43;1.50;;;;;;;15.82;72.49;98242.09;5073067;28;42733;-81
2021/10/05 18:56:06;;;;;;;1.63;1.50;;;;;;;15.82;73.14;98244.78;5069039;28;42133;-81
2021/10/05 18:58:36;;;;;;;1.50;1.40;;;;;;;15.78;72.40;98238.88;5069263;28;40941;-81
2021/10/05 19:01:04;;;;;;;1.87;1.50;;;;;;;15.84;72.84;98248.13;5050857;28;42148;-80
2021/10/05 19:03:32;;;;;;;2.23;1.87;;;;;;;15.90;72.71;98252.91;5068047;28;44960;-80
2021/10/05 19:06:00;;;;;;;1.87;1.60;;;;;;;15.87;72.86;98258.50;5063038;28;42077;-80
2021/10/05 19:08:28;;;;;;;1.50;1.33;;;;;;;15.78;72.84;98244.22;5088292;28;40193;-82
2021/10/05 19:10:58;;;;;;;1.57;1.47;;;;;;;15.88;72.92;98265.53;5070499;28;40717;-80
2021/10/05 19:13:26;;;;;;;1.47;1.37;;;;;;;15.85;72.93;98252.47;5091118;27;41706;-81
2021/10/05 19:15:56;;;;;;;1.30;1.20;;;;;;;15.82;73.12;98254.59;5067740;28;41441;-80
2021/10/05 19:18:24;;;;;;;1.27;1.17;;;;;;;15.84;73.23;98268.63;5051480;28;39115;-82
2021/10/05 19:20:51;;;;;;;1.10;1.00;;;;;;;15.71;73.02;98252.91;5072809;28;40004;-79